Time;durP1;ratioP1;P1;durP2;ratioP2;P2;SDS_P1;SDS_P2;PMS_P1;PMS_P2;Temp;Humidity;BMP_temperature;BMP_pressure;BME280_temperature;BME280_humidity;BME280_pressure;Samples;Min_cycle;Max_cycle;Signal;HPM_P1;HPM_P2
2022/03/08 00:02:15;;;;;;;2.00;0.82;;;;;;;;;;5091942;28;20134;-82
2022/03/08 00:04:41;;;;;;;2.38;0.73;;;;;;;;;;5091047;28;20083;-81
2022/03/08 00:07:07;;;;;;;1.88;1.00;;;;;;;;;;5074233;28;20355;-83
2022/03/08 00:09:33;;;;;;;4.65;0.73;;;;;;;;;;5074157;28;20516;-83
2022/03/08 00:11:59;;;;;;;7.80;0.88;;;;;;;;;;5091688;28;20051;-81
2022/03/08 00:14:25;;;;;;;2.03;0.80;;;;;;;;;;5073394;28;20052;-82
2022/03/08 00:16:51;;;;;;;3.03;0.70;;;;;;;;;;5091757;28;20044;-83
2022/03/08 00:19:21;;;;;;;2.28;0.73;;;;;;;;;;5091658;28;20048;-82
2022/03/08 00:21:47;;;;;;;5.18;0.85;;;;;;;;;;5073337;28;20043;-82
2022/03/08 00:24:14;;;;;;;1.60;0.60;;;;;;;;;;5072684;28;20455;-81
2022/03/08 00:26:40;;;;;;;2.17;0.55;;;;;;;;;;5090855;28;20079;-81
2022/03/08 00:29:06;;;;;;;1.73;0.70;;;;;;;;;;5073102;28;20051;-81
2022/03/08 00:31:33;;;;;;;2.67;0.65;;;;;;;;;;5090926;28;20055;-81
2022/03/08 00:33:59;;;;;;;3.55;0.90;;;;;;;;;;5072086;28;20052;-81
2022/03/08 00:36:25;;;;;;;3.60;0.77;;;;;;;;;;5072508;28;20048;-81
2022/03/08 00:38:52;;;;;;;1.50;0.60;;;;;;;;;;5072465;28;20044;-81
2022/03/08 00:41:18;;;;;;;2.22;0.73;;;;;;;;;;5072370;28;20524;-81
2022/03/08 00:43:44;;;;;;;1.35;0.70;;;;;;;;;;5052047;28;20044;-81
2022/03/08 00:46:10;;;;;;;1.15;0.50;;;;;;;;;;5053459;28;20058;-82
2022/03/08 00:48:37;;;;;;;1.70;0.82;;;;;;;;;;5072175;28;20117;-81
2022/03/08 00:51:03;;;;;;;1.92;0.70;;;;;;;;;;5071885;28;20439;-82
2022/03/08 00:53:31;;;;;;;2.25;0.50;;;;;;;;;;5071232;28;20051;-81
2022/03/08 00:55:57;;;;;;;1.58;0.70;;;;;;;;;;5072291;28;20036;-82
2022/03/08 00:58:23;;;;;;;3.28;1.15;;;;;;;;;;5072670;28;20291;-82
2022/03/08 01:00:49;;;;;;;2.53;0.52;;;;;;;;;;5056042;28;20109;-82
2022/03/08 01:03:15;;;;;;;2.58;0.80;;;;;;;;;;5073085;28;20052;-83
2022/03/08 01:05:41;;;;;;;2.17;0.65;;;;;;;;;;5092760;28;20439;-83
2022/03/08 01:08:07;;;;;;;2.08;0.75;;;;;;;;;;5096239;28;20071;-83
2022/03/08 01:10:33;;;;;;;3.63;0.68;;;;;;;;;;5097941;28;20058;-83
2022/03/08 01:12:59;;;;;;;0.73;0.45;;;;;;;;;;5095637;28;20054;-82
2022/03/08 01:15:26;;;;;;;1.75;0.57;;;;;;;;;;5072606;28;20481;-83
2022/03/08 01:17:53;;;;;;;1.83;0.70;;;;;;;;;;5090542;28;20044;-82
2022/03/08 01:20:19;;;;;;;1.00;0.60;;;;;;;;;;5090795;28;20044;-83
2022/03/08 01:22:45;;;;;;;1.38;0.60;;;;;;;;;;5089925;28;20052;-82
2022/03/08 01:25:12;;;;;;;4.18;0.70;;;;;;;;;;5090145;28;20051;-80
2022/03/08 01:27:39;;;;;;;2.67;0.60;;;;;;;;;;5090442;28;20044;-80
2022/03/08 01:30:06;;;;;;;1.50;0.63;;;;;;;;;;5072206;28;20125;-81
2022/03/08 01:32:32;;;;;;;1.40;0.70;;;;;;;;;;5068362;28;20052;-80
2022/03/08 01:34:58;;;;;;;2.38;0.63;;;;;;;;;;5069618;28;20086;-80
2022/03/08 01:37:24;;;;;;;0.90;0.65;;;;;;;;;;5069279;28;20117;-80
2022/03/08 01:39:50;;;;;;;1.55;0.60;;;;;;;;;;5069462;28;20079;-81
2022/03/08 01:42:17;;;;;;;1.20;0.65;;;;;;;;;;5068350;28;20460;-81
2022/03/08 01:44:44;;;;;;;4.38;0.73;;;;;;;;;;5068461;28;20429;-80
2022/03/08 01:47:14;;;;;;;1.75;0.90;;;;;;;;;;5069503;28;20048;-80
2022/03/08 01:49:40;;;;;;;3.38;0.70;;;;;;;;;;5068239;28;20430;-81
2022/03/08 01:52:07;;;;;;;1.52;0.70;;;;;;;;;;5068444;28;20036;-81
2022/03/08 01:54:33;;;;;;;1.40;0.50;;;;;;;;;;5068116;28;20075;-81
2022/03/08 01:56:59;;;;;;;4.03;1.17;;;;;;;;;;5067958;28;20106;-81
2022/03/08 01:59:25;;;;;;;1.58;0.60;;;;;;;;;;5069474;28;20080;-81
2022/03/08 02:01:51;;;;;;;1.42;0.65;;;;;;;;;;5064522;28;20056;-81
2022/03/08 02:04:18;;;;;;;1.60;0.70;;;;;;;;;;5048980;28;20395;-81
2022/03/08 02:06:47;;;;;;;0.90;0.65;;;;;;;;;;5049111;28;20060;-81
2022/03/08 02:09:13;;;;;;;4.85;0.85;;;;;;;;;;5056239;28;20048;-82
2022/03/08 02:11:40;;;;;;;0.65;0.50;;;;;;;;;;5069772;28;20160;-82
2022/03/08 02:14:06;;;;;;;3.92;0.68;;;;;;;;;;5071817;28;20055;-78
2022/03/08 02:16:32;;;;;;;1.10;0.70;;;;;;;;;;5067610;28;20466;-78
2022/03/08 02:18:58;;;;;;;2.38;0.75;;;;;;;;;;5069980;28;20045;-78
2022/03/08 02:21:28;;;;;;;2.17;0.77;;;;;;;;;;5069205;28;20539;-78
2022/03/08 02:23:54;;;;;;;6.10;0.90;;;;;;;;;;5069991;28;20051;-78
2022/03/08 02:26:21;;;;;;;3.17;0.70;;;;;;;;;;5067540;28;20547;-78
2022/03/08 02:28:47;;;;;;;2.80;0.77;;;;;;;;;;5068625;28;20080;-78
2022/03/08 02:31:17;;;;;;;1.48;0.60;;;;;;;;;;5068432;28;20044;-78
2022/03/08 02:33:44;;;;;;;2.33;0.75;;;;;;;;;;5050049;28;20139;-78
2022/03/08 02:36:10;;;;;;;1.55;0.80;;;;;;;;;;5068061;28;20064;-77
2022/03/08 02:38:36;;;;;;;1.45;1.00;;;;;;;;;;5068862;28;20040;-80
2022/03/08 02:41:02;;;;;;;5.43;0.82;;;;;;;;;;5078484;28;20087;-80
2022/03/08 02:43:29;;;;;;;4.20;0.93;;;;;;;;;;5059976;28;20431;-80
2022/03/08 02:45:55;;;;;;;5.50;0.93;;;;;;;;;;5079004;28;20094;-79
2022/03/08 02:48:25;;;;;;;1.92;0.90;;;;;;;;;;5077099;28;20110;-79
2022/03/08 02:50:51;;;;;;;1.65;0.82;;;;;;;;;;5077250;28;20045;-79
2022/03/08 02:53:17;;;;;;;1.50;0.70;;;;;;;;;;5070145;28;20056;-80
2022/03/08 02:55:43;;;;;;;1.75;0.70;;;;;;;;;;5071576;28;20381;-80
2022/03/08 02:58:12;;;;;;;2.03;0.85;;;;;;;;;;5074047;28;20135;-80
2022/03/08 03:00:38;;;;;;;2.97;0.85;;;;;;;;;;5074826;28;20052;-81
2022/03/08 03:03:05;;;;;;;1.73;0.70;;;;;;;;;;5052112;28;20056;-81
2022/03/08 03:05:33;;;;;;;2.67;0.73;;;;;;;;;;5067648;28;20917;-81
2022/03/08 03:07:59;;;;;;;1.83;0.85;;;;;;;;;;5080715;28;20091;-81
2022/03/08 03:10:25;;;;;;;2.13;0.90;;;;;;;;;;5084653;28;20084;-81
2022/03/08 03:12:52;;;;;;;2.45;0.80;;;;;;;;;;5079163;28;20444;-81
2022/03/08 03:15:19;;;;;;;4.15;0.90;;;;;;;;;;5060130;28;20044;-81
2022/03/08 03:17:46;;;;;;;1.65;0.80;;;;;;;;;;5077636;28;20406;-81
2022/03/08 03:20:13;;;;;;;1.50;0.65;;;;;;;;;;5059344;28;20103;-80
2022/03/08 03:22:39;;;;;;;1.55;0.80;;;;;;;;;;5057071;28;20053;-80
2022/03/08 03:25:05;;;;;;;2.13;0.70;;;;;;;;;;5056559;28;20040;-80
2022/03/08 03:27:33;;;;;;;3.30;1.40;;;;;;;;;;5075087;28;20050;-80
2022/03/08 03:29:59;;;;;;;3.10;0.98;;;;;;;;;;5057548;28;20055;-80
2022/03/08 03:32:25;;;;;;;2.75;0.85;;;;;;;;;;5056245;28;20068;-80
2022/03/08 03:34:51;;;;;;;1.65;0.70;;;;;;;;;;5075856;28;20123;-80
2022/03/08 03:37:18;;;;;;;2.55;0.73;;;;;;;;;;5076620;28;20044;-80
2022/03/08 03:39:44;;;;;;;2.20;0.60;;;;;;;;;;5056969;28;20045;-80
2022/03/08 03:42:10;;;;;;;1.75;0.70;;;;;;;;;;5055520;28;20071;-81
2022/03/08 03:44:36;;;;;;;2.60;0.60;;;;;;;;;;5053688;28;20160;-81
2022/03/08 03:47:02;;;;;;;2.67;0.75;;;;;;;;;;5087982;28;20040;-80
2022/03/08 03:49:28;;;;;;;1.52;0.68;;;;;;;;;;5074873;28;20063;-81
2022/03/08 03:51:55;;;;;;;1.80;0.82;;;;;;;;;;5094938;28;20074;-80
2022/03/08 03:54:21;;;;;;;3.40;0.93;;;;;;;;;;5075204;28;20044;-80
2022/03/08 03:56:47;;;;;;;1.38;0.70;;;;;;;;;;5074052;28;20062;-80
2022/03/08 03:59:14;;;;;;;2.78;1.02;;;;;;;;;;5091974;28;20513;-81
2022/03/08 04:01:40;;;;;;;1.20;0.70;;;;;;;;;;5073572;28;20055;-80
2022/03/08 04:04:06;;;;;;;3.80;0.80;;;;;;;;;;5073669;28;20130;-79
2022/03/08 04:06:32;;;;;;;2.85;1.45;;;;;;;;;;5090921;28;20498;-79
2022/03/08 04:08:59;;;;;;;5.78;1.00;;;;;;;;;;5057236;28;20052;-78
2022/03/08 04:11:25;;;;;;;6.28;1.13;;;;;;;;;;5096164;28;20090;-77
2022/03/08 04:13:51;;;;;;;3.03;0.98;;;;;;;;;;5096675;28;20044;-78
2022/03/08 04:16:17;;;;;;;8.10;1.00;;;;;;;;;;5103906;28;20127;-80
2022/03/08 04:18:43;;;;;;;1.48;0.75;;;;;;;;;;5114109;28;20048;-79
2022/03/08 04:21:09;;;;;;;4.90;1.13;;;;;;;;;;5112537;28;20143;-79
2022/03/08 04:23:39;;;;;;;2.33;0.82;;;;;;;;;;5111763;28;20040;-78
2022/03/08 04:26:06;;;;;;;3.38;1.00;;;;;;;;;;5107868;28;20359;-78
2022/03/08 04:28:32;;;;;;;2.25;0.70;;;;;;;;;;5098157;28;20610;-78
2022/03/08 04:30:58;;;;;;;2.38;0.85;;;;;;;;;;5095131;28;20106;-78
2022/03/08 04:33:24;;;;;;;3.97;0.85;;;;;;;;;;5104162;28;20044;-79
2022/03/08 04:35:50;;;;;;;1.98;0.93;;;;;;;;;;5097800;28;20048;-79
2022/03/08 04:38:17;;;;;;;1.63;0.90;;;;;;;;;;5072571;28;20051;-79
2022/03/08 04:40:44;;;;;;;3.15;0.90;;;;;;;;;;5072953;28;20208;-80
2022/03/08 04:43:10;;;;;;;7.93;1.30;;;;;;;;;;5072365;28;20537;-79
2022/03/08 04:45:36;;;;;;;1.58;0.70;;;;;;;;;;5072326;28;20047;-79
2022/03/08 04:48:02;;;;;;;5.82;0.98;;;;;;;;;;5091554;28;20052;-80
2022/03/08 04:50:29;;;;;;;1.80;0.70;;;;;;;;;;5072248;28;20486;-81
2022/03/08 04:52:55;;;;;;;3.83;0.82;;;;;;;;;;5077757;28;20084;-78
2022/03/08 04:55:21;;;;;;;2.08;1.00;;;;;;;;;;5081701;28;20131;-79
2022/03/08 04:57:47;;;;;;;2.97;0.70;;;;;;;;;;5078806;28;20052;-79
2022/03/08 05:00:14;;;;;;;2.35;1.08;;;;;;;;;;5094993;28;20047;-79
2022/03/08 05:02:43;;;;;;;1.25;0.85;;;;;;;;;;5080361;28;20055;-79
2022/03/08 05:05:15;;;;;;;2.50;0.95;;;;;;;;;;5097825;28;20032;-79
2022/03/08 05:07:42;;;;;;;1.88;0.73;;;;;;;;;;5114472;28;20180;-79
2022/03/08 05:10:10;;;;;;;1.80;0.90;;;;;;;;;;5110499;28;20044;-78
2022/03/08 05:12:37;;;;;;;3.42;1.20;;;;;;;;;;5109158;28;20101;-78
2022/03/08 05:15:04;;;;;;;1.83;0.80;;;;;;;;;;5074524;28;20043;-79
2022/03/08 05:17:30;;;;;;;1.17;0.70;;;;;;;;;;5090918;28;20079;-79
2022/03/08 05:19:56;;;;;;;2.00;0.90;;;;;;;;;;5092703;28;20055;-79
2022/03/08 05:22:22;;;;;;;2.47;0.80;;;;;;;;;;5075451;28;20202;-79
2022/03/08 05:24:48;;;;;;;1.80;0.70;;;;;;;;;;5106693;28;20050;-80
2022/03/08 05:27:14;;;;;;;1.08;0.70;;;;;;;;;;5097147;28;20052;-80
2022/03/08 05:29:43;;;;;;;0.85;0.50;;;;;;;;;;5097316;28;20323;-81
2022/03/08 05:32:10;;;;;;;1.73;0.80;;;;;;;;;;5114696;28;20040;-80
2022/03/08 05:34:36;;;;;;;1.83;0.90;;;;;;;;;;5115186;28;20060;-80
2022/03/08 05:37:02;;;;;;;1.83;0.60;;;;;;;;;;5094484;28;20071;-79
2022/03/08 05:39:28;;;;;;;3.25;1.13;;;;;;;;;;5079312;28;20048;-79
2022/03/08 05:41:54;;;;;;;1.45;0.70;;;;;;;;;;5068784;28;20055;-79
2022/03/08 05:44:21;;;;;;;1.60;0.70;;;;;;;;;;5071485;28;20047;-78
2022/03/08 05:46:47;;;;;;;2.55;0.70;;;;;;;;;;5081904;28;20117;-77
2022/03/08 05:49:13;;;;;;;1.10;0.65;;;;;;;;;;5098821;28;20067;-77
2022/03/08 05:51:39;;;;;;;1.30;0.70;;;;;;;;;;5097659;28;20139;-77
2022/03/08 05:54:05;;;;;;;1.80;0.70;;;;;;;;;;5080151;28;20239;-79
2022/03/08 05:56:31;;;;;;;2.08;0.70;;;;;;;;;;5078136;28;20090;-78
2022/03/08 05:58:57;;;;;;;2.55;1.10;;;;;;;;;;5103064;28;20048;-79
2022/03/08 06:01:23;;;;;;;3.63;0.85;;;;;;;;;;5087038;28;20044;-79
2022/03/08 06:03:49;;;;;;;2.83;0.85;;;;;;;;;;5093027;28;20055;-79
2022/03/08 06:06:15;;;;;;;2.05;0.95;;;;;;;;;;5093229;28;20400;-79
2022/03/08 06:08:41;;;;;;;2.53;1.02;;;;;;;;;;5082217;28;20044;-79
2022/03/08 06:11:07;;;;;;;2.60;0.88;;;;;;;;;;5089059;28;20469;-75
2022/03/08 06:13:33;;;;;;;2.65;0.80;;;;;;;;;;5071574;28;20381;-72
2022/03/08 06:15:59;;;;;;;3.75;1.05;;;;;;;;;;5089480;28;20044;-71
2022/03/08 06:18:25;;;;;;;2.72;0.90;;;;;;;;;;5088576;28;20098;-72
2022/03/08 06:20:51;;;;;;;4.00;1.13;;;;;;;;;;5070195;28;20398;-70
2022/03/08 06:23:17;;;;;;;3.95;0.98;;;;;;;;;;5069815;28;20043;-69
2022/03/08 06:25:44;;;;;;;2.97;1.02;;;;;;;;;;5088716;28;20493;-71
2022/03/08 06:28:10;;;;;;;2.75;0.85;;;;;;;;;;5070574;28;20048;-70
2022/03/08 06:30:36;;;;;;;2.42;1.13;;;;;;;;;;5088978;28;20048;-71
2022/03/08 06:33:02;;;;;;;2.55;1.17;;;;;;;;;;5069650;28;20047;-69
2022/03/08 06:35:28;;;;;;;1.75;1.10;;;;;;;;;;5088536;28;20063;-71
2022/03/08 06:37:54;;;;;;;2.80;1.08;;;;;;;;;;5069136;28;20040;-71
2022/03/08 06:40:20;;;;;;;1.80;1.00;;;;;;;;;;5069891;28;20050;-69
2022/03/08 06:42:46;;;;;;;5.65;1.20;;;;;;;;;;5068814;28;20043;-69
2022/03/08 06:45:12;;;;;;;1.98;1.10;;;;;;;;;;5069999;28;20219;-69
2022/03/08 06:47:38;;;;;;;2.15;1.27;;;;;;;;;;5088402;28;20310;-69
2022/03/08 06:50:05;;;;;;;1.73;1.10;;;;;;;;;;5070148;28;20750;-68
2022/03/08 06:52:31;;;;;;;1.92;1.08;;;;;;;;;;5086997;28;20105;-68
2022/03/08 06:54:57;;;;;;;3.28;1.20;;;;;;;;;;5088167;28;20048;-68
2022/03/08 06:57:24;;;;;;;2.53;1.17;;;;;;;;;;5087614;28;20164;-67
2022/03/08 06:59:50;;;;;;;1.65;1.05;;;;;;;;;;5087201;28;20052;-70
2022/03/08 07:02:16;;;;;;;1.75;1.10;;;;;;;;;;5070000;28;20055;-70
2022/03/08 07:04:42;;;;;;;2.20;1.05;;;;;;;;;;5068979;28;20048;-67
2022/03/08 07:07:08;;;;;;;2.25;1.40;;;;;;;;;;5087537;28;20127;-71
2022/03/08 07:09:34;;;;;;;2.42;1.10;;;;;;;;;;5069702;28;20044;-68
2022/03/08 07:12:01;;;;;;;2.63;1.20;;;;;;;;;;5087086;28;20051;-69
2022/03/08 07:14:27;;;;;;;1.75;1.20;;;;;;;;;;5087631;28;20428;-69
2022/03/08 07:16:54;;;;;;;2.17;1.25;;;;;;;;;;5087802;28;20055;-69
2022/03/08 07:19:20;;;;;;;2.72;1.30;;;;;;;;;;5069069;28;20044;-69
2022/03/08 07:21:46;;;;;;;1.65;1.08;;;;;;;;;;5068500;28;20048;-70
2022/03/08 07:24:13;;;;;;;1.90;1.00;;;;;;;;;;5069730;28;20059;-69
2022/03/08 07:26:39;;;;;;;2.05;0.95;;;;;;;;;;5069380;28;20052;-67
2022/03/08 07:29:05;;;;;;;3.05;1.50;;;;;;;;;;5086930;28;20040;-68
2022/03/08 07:31:31;;;;;;;2.78;1.20;;;;;;;;;;5086995;28;20402;-70
2022/03/08 07:33:58;;;;;;;2.78;1.10;;;;;;;;;;5087234;28;20422;-70
2022/03/08 07:36:24;;;;;;;2.92;1.20;;;;;;;;;;5086594;28;20092;-69
2022/03/08 07:38:50;;;;;;;3.97;1.42;;;;;;;;;;5087381;28;20048;-68
2022/03/08 07:41:16;;;;;;;4.50;1.20;;;;;;;;;;5088136;28;20040;-68
2022/03/08 07:43:42;;;;;;;4.45;1.40;;;;;;;;;;5070113;28;20052;-69
2022/03/08 07:46:09;;;;;;;2.17;1.30;;;;;;;;;;5087491;28;20040;-68
2022/03/08 07:48:35;;;;;;;4.00;1.55;;;;;;;;;;5087069;28;20086;-69
2022/03/08 07:51:02;;;;;;;3.40;1.73;;;;;;;;;;5086547;28;20048;-68
2022/03/08 07:53:28;;;;;;;4.07;1.42;;;;;;;;;;5087676;28;20047;-70
2022/03/08 07:55:54;;;;;;;3.00;1.10;;;;;;;;;;5088000;28;20493;-69
2022/03/08 07:58:20;;;;;;;6.20;1.42;;;;;;;;;;5087621;28;20040;-69
2022/03/08 08:00:46;;;;;;;5.30;1.33;;;;;;;;;;5069620;28;20040;-70
2022/03/08 08:03:12;;;;;;;4.35;1.52;;;;;;;;;;5088819;28;20055;-70
2022/03/08 08:05:39;;;;;;;6.50;1.55;;;;;;;;;;5073109;28;20055;-69
2022/03/08 08:08:05;;;;;;;3.78;1.67;;;;;;;;;;5073117;28;20040;-69
2022/03/08 08:10:32;;;;;;;5.28;1.58;;;;;;;;;;5090897;28;20048;-72
2022/03/08 08:12:58;;;;;;;6.93;1.58;;;;;;;;;;5073064;28;20098;-71
2022/03/08 08:15:24;;;;;;;6.25;1.48;;;;;;;;;;5073301;28;20056;-71
2022/03/08 08:17:50;;;;;;;4.05;1.40;;;;;;;;;;5091660;28;20521;-70
2022/03/08 08:20:17;;;;;;;5.10;1.77;;;;;;;;;;5073513;28;20040;-70
2022/03/08 08:22:43;;;;;;;5.35;1.88;;;;;;;;;;5090678;28;20074;-69
2022/03/08 08:25:10;;;;;;;5.78;2.25;;;;;;;;;;5072273;28;20048;-71
2022/03/08 08:27:37;;;;;;;4.60;2.10;;;;;;;;;;5090949;28;20036;-68
2022/03/08 08:30:04;;;;;;;9.90;2.42;;;;;;;;;;5091021;28;20359;-69
2022/03/08 08:32:30;;;;;;;9.68;2.90;;;;;;;;;;5090743;28;20056;-69
2022/03/08 08:34:56;;;;;;;9.75;2.85;;;;;;;;;;5090754;28;20044;-69
2022/03/08 08:37:22;;;;;;;8.07;2.88;;;;;;;;;;5072632;28;20052;-69
2022/03/08 08:39:49;;;;;;;7.53;3.38;;;;;;;;;;5090389;28;20052;-73
2022/03/08 08:42:15;;;;;;;7.32;3.25;;;;;;;;;;5090368;28;20070;-71
2022/03/08 08:44:41;;;;;;;7.28;3.40;;;;;;;;;;5090289;28;20101;-72
2022/03/08 08:47:07;;;;;;;10.20;3.08;;;;;;;;;;5072121;28;20054;-71
2022/03/08 08:49:33;;;;;;;9.35;3.08;;;;;;;;;;5090629;28;20109;-71
2022/03/08 08:51:59;;;;;;;7.95;2.88;;;;;;;;;;5090626;28;20143;-70
2022/03/08 08:54:25;;;;;;;8.32;3.03;;;;;;;;;;5090675;28;20083;-70
2022/03/08 08:56:51;;;;;;;10.32;3.25;;;;;;;;;;5071105;28;20055;-71
2022/03/08 08:59:17;;;;;;;8.85;3.38;;;;;;;;;;5089865;28;20048;-71
2022/03/08 09:01:43;;;;;;;9.10;2.95;;;;;;;;;;5071852;28;20074;-70
2022/03/08 09:04:09;;;;;;;7.05;2.72;;;;;;;;;;5055447;28;20075;-72
2022/03/08 09:06:35;;;;;;;8.75;3.25;;;;;;;;;;5053761;28;20504;-72
2022/03/08 09:09:01;;;;;;;9.63;2.90;;;;;;;;;;5088344;28;20154;-70
2022/03/08 09:11:28;;;;;;;6.07;2.67;;;;;;;;;;5070644;28;20050;-72
2022/03/08 09:13:56;;;;;;;7.70;2.70;;;;;;;;;;5088917;28;20040;-72
2022/03/08 09:16:23;;;;;;;7.88;3.15;;;;;;;;;;5069715;28;20052;-71
2022/03/08 09:18:49;;;;;;;6.68;2.67;;;;;;;;;;5089996;28;20113;-71
2022/03/08 09:21:15;;;;;;;8.05;3.10;;;;;;;;;;5071486;28;20040;-71
2022/03/08 09:23:41;;;;;;;8.13;3.20;;;;;;;;;;5055594;28;20055;-72
2022/03/08 09:26:08;;;;;;;9.02;2.60;;;;;;;;;;5090018;28;20048;-71
2022/03/08 09:28:34;;;;;;;6.70;3.03;;;;;;;;;;5089764;28;20439;-72
2022/03/08 09:31:00;;;;;;;5.50;2.30;;;;;;;;;;5072114;28;20055;-73
2022/03/08 09:33:27;;;;;;;5.20;2.42;;;;;;;;;;5070440;28;20053;-72
2022/03/08 09:35:53;;;;;;;5.88;2.40;;;;;;;;;;5095465;28;20040;-72
2022/03/08 09:38:19;;;;;;;8.27;2.50;;;;;;;;;;5089687;28;20138;-72
2022/03/08 09:40:47;;;;;;;6.70;2.63;;;;;;;;;;5089317;28;20315;-72
2022/03/08 09:43:14;;;;;;;4.72;2.30;;;;;;;;;;5089464;28;20557;-72
2022/03/08 09:45:41;;;;;;;6.60;2.50;;;;;;;;;;5071461;28;20179;-72
2022/03/08 09:48:07;;;;;;;5.22;2.30;;;;;;;;;;5088588;28;20071;-72
2022/03/08 09:50:33;;;;;;;5.53;2.30;;;;;;;;;;5088441;28;20044;-72
2022/03/08 09:53:00;;;;;;;6.13;2.47;;;;;;;;;;5089746;28;20101;-72
2022/03/08 09:55:27;;;;;;;5.90;2.42;;;;;;;;;;5089169;28;20123;-72
2022/03/08 09:57:53;;;;;;;6.80;2.42;;;;;;;;;;5089700;28;20097;-72
2022/03/08 10:00:22;;;;;;;6.13;3.00;;;;;;;;;;5054787;28;20032;-72
2022/03/08 10:02:58;;;;;;;6.63;2.58;;;;;;;;;;5070409;28;20048;-72
2022/03/08 10:05:25;;;;;;;5.03;2.35;;;;;;;;;;5089105;28;20063;-72
2022/03/08 10:08:04;;;;;;;5.05;2.00;;;;;;;;;;5087800;28;20044;-72
2022/03/08 10:10:31;;;;;;;4.65;2.50;;;;;;;;;;5088541;28;20056;-72
2022/03/08 10:12:57;;;;;;;5.38;2.03;;;;;;;;;;5070349;28;20040;-72
2022/03/08 10:15:23;;;;;;;4.47;2.05;;;;;;;;;;5089231;28;20044;-72
2022/03/08 10:17:49;;;;;;;4.72;1.90;;;;;;;;;;5088699;28;20062;-72
2022/03/08 10:20:28;;;;;;;5.35;2.13;;;;;;;;;;5087767;28;20471;-72
2022/03/08 10:22:55;;;;;;;5.50;2.30;;;;;;;;;;5089017;28;20485;-72
2022/03/08 10:25:26;;;;;;;3.97;1.98;;;;;;;;;;5086912;28;20059;-72
2022/03/08 10:27:52;;;;;;;5.00;2.00;;;;;;;;;;5087608;28;20052;-70
2022/03/08 10:30:19;;;;;;;3.22;1.73;;;;;;;;;;5088614;28;20074;-71
2022/03/08 10:32:46;;;;;;;4.13;1.80;;;;;;;;;;5066803;28;20156;-69
2022/03/08 10:35:21;;;;;;;4.35;2.47;;;;;;;;;;5068610;28;20063;-70
2022/03/08 10:37:47;;;;;;;5.75;2.00;;;;;;;;;;5069311;28;20051;-71
2022/03/08 10:40:21;;;;;;;4.45;2.10;;;;;;;;;;5064792;28;20044;-70
2022/03/08 10:42:57;;;;;;;10.77;2.45;;;;;;;;;;5067885;28;20540;-73
2022/03/08 10:45:26;;;;;;;6.43;2.15;;;;;;;;;;5068996;28;20165;-72
2022/03/08 10:47:53;;;;;;;6.53;1.70;;;;;;;;;;5066292;28;20079;-72
2022/03/08 10:50:21;;;;;;;6.75;2.05;;;;;;;;;;5067072;28;20051;-72
2022/03/08 10:52:48;;;;;;;10.75;2.28;;;;;;;;;;5066287;28;20048;-74
2022/03/08 10:55:24;;;;;;;9.38;2.22;;;;;;;;;;5068623;28;20040;-74
2022/03/08 10:57:53;;;;;;;5.38;2.13;;;;;;;;;;5068963;28;20040;-74
2022/03/08 11:00:20;;;;;;;5.63;1.60;;;;;;;;;;5056836;28;20055;-75
2022/03/08 11:02:49;;;;;;;5.32;2.25;;;;;;;;;;5077243;28;20052;-74
2022/03/08 11:05:16;;;;;;;4.65;1.83;;;;;;;;;;5068754;28;20084;-73
2022/03/08 11:07:42;;;;;;;4.93;1.65;;;;;;;;;;5067069;28;20048;-75
2022/03/08 11:10:10;;;;;;;6.28;2.08;;;;;;;;;;5067642;28;20442;-75
2022/03/08 11:12:36;;;;;;;12.70;1.98;;;;;;;;;;5048789;28;20090;-78
2022/03/08 11:15:03;;;;;;;7.22;1.80;;;;;;;;;;5068249;28;20106;-77
2022/03/08 11:17:31;;;;;;;3.35;1.60;;;;;;;;;;5050197;28;20044;-78
2022/03/08 11:19:57;;;;;;;3.63;1.83;;;;;;;;;;5067540;28;20072;-76
2022/03/08 11:22:24;;;;;;;3.90;1.83;;;;;;;;;;5067691;28;20043;-79
2022/03/08 11:24:50;;;;;;;4.63;1.73;;;;;;;;;;5065925;28;20048;-76
2022/03/08 11:27:17;;;;;;;3.30;1.63;;;;;;;;;;5067216;28;20495;-75
2022/03/08 11:29:43;;;;;;;5.32;1.70;;;;;;;;;;5067832;28;20087;-75
2022/03/08 11:32:22;;;;;;;5.25;2.00;;;;;;;;;;5067850;28;20101;-75
2022/03/08 11:34:54;;;;;;;3.30;1.60;;;;;;;;;;5070781;28;20103;-74
2022/03/08 11:37:23;;;;;;;5.63;1.98;;;;;;;;;;5070576;28;20044;-75
2022/03/08 11:40:04;;;;;;;5.53;1.55;;;;;;;;;;5075202;28;20080;-75
2022/03/08 11:42:32;;;;;;;2.78;1.52;;;;;;;;;;5057004;28;20353;-76
2022/03/08 11:45:06;;;;;;;3.80;1.67;;;;;;;;;;5074681;28;20059;-74
2022/03/08 11:47:37;;;;;;;4.05;1.90;;;;;;;;;;5090845;28;20233;-72
2022/03/08 11:50:03;;;;;;;3.38;1.52;;;;;;;;;;5091261;28;20044;-72
2022/03/08 11:52:30;;;;;;;3.22;1.58;;;;;;;;;;5090318;28;20036;-73
2022/03/08 11:55:08;;;;;;;4.20;1.95;;;;;;;;;;5073259;28;20079;-73
2022/03/08 11:57:54;;;;;;;7.20;1.90;;;;;;;;;;5072992;28;20135;-73
2022/03/08 12:00:32;;;;;;;3.88;1.70;;;;;;;;;;5092511;28;20128;-76
2022/03/08 12:03:03;;;;;;;4.85;1.85;;;;;;;;;;5072638;28;20047;-73
2022/03/08 12:05:38;;;;;;;5.47;1.67;;;;;;;;;;5073320;28;20036;-73
2022/03/08 12:08:37;;;;;;;4.25;1.60;;;;;;;;;;5081706;28;20413;-74
2022/03/08 12:11:22;;;;;;;2.40;1.30;;;;;;;;;;5020010;28;20063;-74
2022/03/08 12:13:58;;;;;;;3.50;1.50;;;;;;;;;;5088214;28;20123;-74
2022/03/08 12:16:25;;;;;;;2.65;1.40;;;;;;;;;;5053144;28;20155;-74
2022/03/08 12:18:56;;;;;;;3.38;1.52;;;;;;;;;;5071353;28;20083;-74
2022/03/08 12:21:23;;;;;;;3.85;1.52;;;;;;;;;;5053181;28;20066;-74
2022/03/08 12:23:53;;;;;;;2.35;1.40;;;;;;;;;;5086666;28;20144;-74
2022/03/08 12:26:23;;;;;;;4.28;1.55;;;;;;;;;;5073015;28;20101;-73
2022/03/08 12:29:10;;;;;;;1.85;1.10;;;;;;;;;;5073136;28;20048;-73
2022/03/08 12:31:54;;;;;;;3.85;1.17;;;;;;;;;;5090800;28;20048;-73
2022/03/08 12:34:39;;;;;;;2.47;1.35;;;;;;;;;;5070058;28;20068;-73
2022/03/08 12:37:09;;;;;;;3.25;1.23;;;;;;;;;;5070477;28;20051;-73
2022/03/08 12:39:45;;;;;;;4.38;1.25;;;;;;;;;;5053318;28;20553;-72
2022/03/08 12:42:17;;;;;;;3.10;1.40;;;;;;;;;;5070587;28;20414;-72
2022/03/08 12:44:50;;;;;;;3.40;1.40;;;;;;;;;;5052607;28;20406;-73
2022/03/08 12:47:17;;;;;;;1.67;1.00;;;;;;;;;;5077101;28;20112;-74
2022/03/08 12:49:44;;;;;;;2.40;1.02;;;;;;;;;;5089558;28;20428;-74
2022/03/08 12:52:10;;;;;;;2.45;0.98;;;;;;;;;;5072876;28;20041;-73
2022/03/08 12:54:39;;;;;;;2.40;1.20;;;;;;;;;;5091127;28;20068;-73
2022/03/08 12:57:06;;;;;;;2.23;1.20;;;;;;;;;;5072748;28;20044;-73
2022/03/08 12:59:32;;;;;;;2.38;1.20;;;;;;;;;;5090430;28;20040;-74
2022/03/08 13:02:11;;;;;;;2.60;1.20;;;;;;;;;;5090494;28;20044;-73
2022/03/08 13:04:37;;;;;;;3.85;1.20;;;;;;;;;;5072449;28;20047;-74
2022/03/08 13:07:08;;;;;;;2.75;0.90;;;;;;;;;;5055123;28;20074;-73
2022/03/08 13:09:49;;;;;;;3.15;1.00;;;;;;;;;;5090203;28;20040;-74
2022/03/08 13:12:19;;;;;;;3.38;0.98;;;;;;;;;;5090960;28;20044;-74
2022/03/08 13:15:05;;;;;;;2.80;0.95;;;;;;;;;;5090926;28;20448;-74
2022/03/08 13:17:31;;;;;;;2.70;1.05;;;;;;;;;;5090400;28;20047;-74
2022/03/08 13:19:57;;;;;;;2.28;1.10;;;;;;;;;;5089982;28;20047;-74
2022/03/08 13:22:24;;;;;;;1.52;0.80;;;;;;;;;;5072085;28;20494;-73
2022/03/08 13:25:09;;;;;;;2.22;1.08;;;;;;;;;;5055898;28;20395;-75
2022/03/08 13:27:56;;;;;;;4.90;1.00;;;;;;;;;;5072202;28;20514;-76
2022/03/08 13:30:26;;;;;;;1.55;0.90;;;;;;;;;;5071281;28;20040;-75
2022/03/08 13:33:11;;;;;;;1.77;0.90;;;;;;;;;;5089827;28;20048;-75
2022/03/08 13:35:38;;;;;;;2.20;0.85;;;;;;;;;;5089931;28;20483;-76
2022/03/08 13:38:04;;;;;;;2.38;0.95;;;;;;;;;;5055469;28;20052;-75
2022/03/08 13:40:32;;;;;;;1.52;0.85;;;;;;;;;;5071702;28;20474;-75
2022/03/08 13:42:59;;;;;;;1.23;0.70;;;;;;;;;;5089035;28;20067;-77
2022/03/08 13:45:26;;;;;;;1.67;1.00;;;;;;;;;;5071694;28;20461;-76
2022/03/08 13:47:54;;;;;;;1.08;0.90;;;;;;;;;;5071861;28;20104;-75
2022/03/08 13:50:21;;;;;;;2.15;1.05;;;;;;;;;;5089637;28;20086;-73
2022/03/08 13:52:51;;;;;;;2.00;0.80;;;;;;;;;;5070891;28;20048;-76
2022/03/08 13:55:18;;;;;;;1.88;0.80;;;;;;;;;;5071510;28;20052;-75
2022/03/08 13:58:00;;;;;;;1.25;0.90;;;;;;;;;;5089647;28;20135;-75
2022/03/08 14:00:28;;;;;;;2.55;0.88;;;;;;;;;;5089024;28;20052;-72
2022/03/08 14:02:55;;;;;;;1.67;0.80;;;;;;;;;;5071608;28;20053;-76
2022/03/08 14:05:21;;;;;;;2.33;0.80;;;;;;;;;;5089209;28;20123;-77
2022/03/08 14:07:58;;;;;;;1.23;0.70;;;;;;;;;;5089268;28;20047;-76
2022/03/08 14:10:24;;;;;;;1.30;0.70;;;;;;;;;;5055079;28;20132;-75
2022/03/08 14:12:51;;;;;;;1.55;0.75;;;;;;;;;;5089145;28;20051;-73
2022/03/08 14:15:17;;;;;;;1.45;0.60;;;;;;;;;;5089035;28;20036;-74
2022/03/08 14:17:44;;;;;;;1.27;0.68;;;;;;;;;;5070535;28;20482;-76
2022/03/08 14:20:28;;;;;;;2.47;0.80;;;;;;;;;;5071504;28;20061;-76
2022/03/08 14:22:58;;;;;;;1.33;0.60;;;;;;;;;;5087524;28;20051;-75
2022/03/08 14:25:24;;;;;;;;;;;;;;;;;;5072827;28;20051;-72
2022/03/08 14:27:50;;;;;;;2.03;0.90;;;;;;;;;;5088300;28;20297;-75
2022/03/08 14:30:21;;;;;;;1.10;0.60;;;;;;;;;;5088893;28;20159;-74
2022/03/08 14:32:48;;;;;;;1.38;0.70;;;;;;;;;;5066885;28;20078;-77
2022/03/08 14:35:15;;;;;;;1.15;0.68;;;;;;;;;;5050885;28;20122;-72
2022/03/08 14:37:42;;;;;;;1.70;0.80;;;;;;;;;;5081467;28;20120;-74
2022/03/08 14:40:08;;;;;;;2.22;0.70;;;;;;;;;;5087806;28;20477;-72
2022/03/08 14:42:35;;;;;;;1.27;0.70;;;;;;;;;;5087836;28;20055;-73
2022/03/08 14:45:03;;;;;;;1.58;0.85;;;;;;;;;;5087365;28;20047;-76
2022/03/08 14:47:38;;;;;;;1.10;0.65;;;;;;;;;;5087799;28;20085;-75